Time,TemperatureF,DewpointF,PressureIn,WindDirection,WindDirectionDegrees,WindSpeedMPH,WindSpeedGustMPH,Humidity,HourlyPrecipIn,Conditions,Clouds,dailyrainin,SoftwareType,DateUTC
2013-07-31 00:13:00,59.6,54.0,29.98,NE,38,0.0,-999.0,83,-99.99,,,0.00,weatherlink.com 1.10,2013-07-31 07:13:00,
2013-07-31 00:28:00,58.7,54.0,29.98,NE,38,0.0,-999.0,85,-99.99,,,0.00,weatherlink.com 1.10,2013-07-31 07:28:00,
2013-07-31 00:43:00,58.1,54.0,29.99,NE,38,0.0,-999.0,87,-99.99,,,0.00,weatherlink.com 1.10,2013-07-31 07:43:00,
2013-07-31 00:58:00,57.6,54.0,29.99,West,259,0.0,-999.0,87,-99.99,,,0.00,weatherlink.com 1.10,2013-07-31 07:58:00,
2013-07-31 01:13:00,57.2,54.0,29.98,West,259,0.0,-999.0,88,-99.99,,,0.00,weatherlink.com 1.10,2013-07-31 08:13:00,
2013-07-31 01:28:00,56.7,54.0,29.98,West,259,0.0,-999.0,89,-99.99,,,0.00,weatherlink.com 1.10,2013-07-31 08:28:00,
2013-07-31 01:44:00,56.6,54.0,29.98,West,259,0.0,-999.0,89,-99.99,,,0.00,weatherlink.com 1.10,2013-07-31 08:44:00,
2013-07-31 01:59:00,56.5,54.0,29.98,West,259,0.0,-999.0,90,-99.99,,,0.00,weatherlink.com 1.10,2013-07-31 08:59:00,
2013-07-31 02:14:00,56.5,54.0,29.98,West,259,0.0,-999.0,90,-99.99,,,0.00,weatherlink.com 1.10,2013-07-31 09:14:00,
2013-07-31 02:28:00,56.5,53.0,29.98,West,259,0.0,-999.0,89,-99.99,,,0.00,weatherlink.com 1.10,2013-07-31 09:28:00,
2013-07-31 02:44:00,56.3,54.0,29.98,West,262,0.0,-999.0,90,-99.99,,,0.00,weatherlink.com 1.10,2013-07-31 09:44:00,
2013-07-31 02:59:00,56.6,54.0,29.98,West,262,0.0,-999.0,90,-99.99,,,0.00,weatherlink.com 1.10,2013-07-31 09:59:00,
2013-07-31 03:14:00,56.3,54.0,29.98,West,262,0.0,-999.0,90,-99.99,,,0.00,weatherlink.com 1.10,2013-07-31 10:14:00,
2013-07-31 03:29:00,56.0,54.0,29.98,NNW,340,0.0,-999.0,92,-99.99,,,0.00,weatherlink.com 1.10,2013-07-31 10:29:00,
2013-07-31 03:44:00,55.9,54.0,29.98,NNW,341,0.0,-999.0,93,-99.99,,,0.00,weatherlink.com 1.10,2013-07-31 10:44:00,
2013-07-31 03:59:00,55.9,54.0,29.98,NNW,343,0.0,-999.0,93,-99.99,,,0.00,weatherlink.com 1.10,2013-07-31 10:59:00,
2013-07-31 04:14:00,55.7,54.0,29.99,NNW,343,0.0,-999.0,93,-99.99,,,0.00,weatherlink.com 1.10,2013-07-31 11:14:00,
2013-07-31 04:29:00,55.3,54.0,29.99,NNW,343,0.0,-999.0,94,-99.99,,,0.00,weatherlink.com 1.10,2013-07-31 11:29:00,
2013-07-31 04:44:00,55.1,54.0,29.98,NNW,343,0.0,-999.0,94,-99.99,,,0.00,weatherlink.com 1.10,2013-07-31 11:44:00,
2013-07-31 04:59:00,54.8,53.0,29.98,NNW,343,0.0,-999.0,95,-99.99,,,0.00,weatherlink.com 1.10,2013-07-31 11:59:00,
2013-07-31 05:14:00,55.1,54.0,29.98,NNW,343,0.0,-999.0,95,-99.99,,,0.00,weatherlink.com 1.10,2013-07-31 12:14:00,
2013-07-31 05:29:00,55.3,54.0,29.98,NNW,343,0.0,-999.0,95,-99.99,,,0.00,weatherlink.com 1.10,2013-07-31 12:29:00,
2013-07-31 05:44:00,55.1,54.0,29.98,NNW,343,0.0,-999.0,95,-99.99,,,0.00,weatherlink.com 1.10,2013-07-31 12:44:00,
2013-07-31 05:59:00,55.1,54.0,29.98,NNW,343,0.0,-999.0,95,-99.99,,,0.00,weatherlink.com 1.10,2013-07-31 12:59:00,
2013-07-31 06:14:00,55.3,54.0,29.98,NNW,343,0.0,-999.0,95,-99.99,,,0.00,weatherlink.com 1.10,2013-07-31 13:14:00,
2013-07-31 06:29:00,55.4,54.0,29.98,NNW,343,0.0,-999.0,95,-99.99,,,0.00,weatherlink.com 1.10,2013-07-31 13:29:00,
2013-07-31 06:44:00,55.1,54.0,29.97,NE,34,0.0,-999.0,94,-99.99,,,0.00,weatherlink.com 1.10,2013-07-31 13:44:00,
2013-07-31 06:59:00,55.0,54.0,29.98,NNE,18,1.0,-999.0,95,-99.99,,,0.00,weatherlink.com 1.10,2013-07-31 13:59:00,
2013-07-31 07:14:00,55.0,54.0,29.97,NNE,30,0.0,-999.0,95,-99.99,,,0.00,weatherlink.com 1.10,2013-07-31 14:14:00,
2013-07-31 07:29:00,55.1,54.0,29.97,NE,38,0.0,-999.0,95,-99.99,,,0.00,weatherlink.com 1.10,2013-07-31 14:29:00,
2013-07-31 07:44:00,55.4,54.0,29.98,NNE,17,0.0,-999.0,95,-99.99,,,0.00,weatherlink.com 1.10,2013-07-31 14:44:00,
2013-07-31 08:00:00,55.9,54.0,29.98,NNE,17,0.0,-999.0,94,-99.99,,,0.00,weatherlink.com 1.10,2013-07-31 15:00:00,
2013-07-31 08:14:00,56.6,55.0,29.98,SW,236,0.0,-999.0,93,-99.99,,,0.00,weatherlink.com 1.10,2013-07-31 15:14:00,
2013-07-31 08:30:00,57.5,55.0,29.99,SW,236,0.0,-999.0,92,-99.99,,,0.00,weatherlink.com 1.10,2013-07-31 15:30:00,
2013-07-31 08:44:00,58.4,55.0,29.99,SW,236,0.0,-999.0,89,-99.99,,,0.00,weatherlink.com 1.10,2013-07-31 15:44:00,
2013-07-31 08:59:00,58.9,55.0,30.00,SW,236,0.0,-999.0,88,-99.99,,,0.00,weatherlink.com 1.10,2013-07-31 15:59:00,
2013-07-31 09:15:00,59.2,55.0,30.00,WSW,252,0.0,-999.0,87,-99.99,,,0.00,weatherlink.com 1.10,2013-07-31 16:15:00,
2013-07-31 09:28:00,59.0,56.0,29.99,WSW,252,0.0,-999.0,88,-99.99,,,0.00,weatherlink.com 1.10,2013-07-31 16:28:00,
2013-07-31 09:43:00,59.6,55.0,29.98,NNE,22,2.0,-999.0,85,-99.99,,,0.00,weatherlink.com 1.10,2013-07-31 16:43:00,
2013-07-31 09:58:00,60.5,56.0,29.97,ENE,65,0.0,-999.0,84,-99.99,,,0.00,weatherlink.com 1.10,2013-07-31 16:58:00,
2013-07-31 10:14:00,62.0,57.0,29.97,NE,34,1.0,-999.0,83,-99.99,,,0.00,weatherlink.com 1.10,2013-07-31 17:14:00,
2013-07-31 10:28:00,63.4,57.0,29.97,North,9,0.0,-999.0,80,-99.99,,,0.00,weatherlink.com 1.10,2013-07-31 17:28:00,
2013-07-31 10:43:00,63.1,56.0,29.98,ENE,78,0.0,-999.0,78,-99.99,,,0.00,weatherlink.com 1.10,2013-07-31 17:43:00,
2013-07-31 10:58:00,63.1,57.0,29.98,NNE,30,0.0,-999.0,79,-99.99,,,0.00,weatherlink.com 1.10,2013-07-31 17:58:00,
2013-07-31 11:13:00,63.2,57.0,29.96,NNE,30,0.0,-999.0,80,-99.99,,,0.00,weatherlink.com 1.10,2013-07-31 18:13:00,
2013-07-31 11:28:00,63.7,57.0,29.96,NNE,26,1.0,-999.0,78,-99.99,,,0.00,weatherlink.com 1.10,2013-07-31 18:28:00,
2013-07-31 11:44:00,64.8,57.0,29.96,NNE,26,2.0,-999.0,77,-99.99,,,0.00,weatherlink.com 1.10,2013-07-31 18:44:00,
2013-07-31 12:00:00,65.0,57.0,29.95,NNE,15,3.0,-999.0,76,-99.99,,,0.00,weatherlink.com 1.10,2013-07-31 19:00:00,
2013-07-31 12:15:00,65.3,58.0,29.95,NNE,26,1.0,-999.0,76,-99.99,,,0.00,weatherlink.com 1.10,2013-07-31 19:15:00,
2013-07-31 12:30:00,65.8,57.0,29.95,NNE,19,0.0,-999.0,74,-99.99,,,0.00,weatherlink.com 1.10,2013-07-31 19:30:00,
2013-07-31 12:44:00,66.4,58.0,29.93,WNW,302,0.0,-999.0,73,-99.99,,,0.00,weatherlink.com 1.10,2013-07-31 19:44:00,
2013-07-31 12:58:00,68.4,58.0,29.94,NW,323,0.0,-999.0,70,-99.99,,,0.00,weatherlink.com 1.10,2013-07-31 19:58:00,
2013-07-31 13:15:00,68.8,60.0,29.94,WSW,256,0.0,-999.0,73,-99.99,,,0.00,weatherlink.com 1.10,2013-07-31 20:15:00,
2013-07-31 13:29:00,69.3,59.0,29.94,NNW,334,4.0,-999.0,69,-99.99,,,0.00,weatherlink.com 1.10,2013-07-31 20:29:00,
2013-07-31 13:44:00,70.1,59.0,29.93,NW,325,3.0,-999.0,67,-99.99,,,0.00,weatherlink.com 1.10,2013-07-31 20:44:00,
2013-07-31 13:59:00,69.8,59.0,29.93,East,88,0.0,-999.0,68,-99.99,,,0.00,weatherlink.com 1.10,2013-07-31 20:59:00,
2013-07-31 14:14:00,70.9,58.0,29.93,NE,44,1.0,-999.0,65,-99.99,,,0.00,weatherlink.com 1.10,2013-07-31 21:14:00,
2013-07-31 14:30:00,71.8,59.0,29.93,WSW,250,2.0,-999.0,65,-99.99,,,0.00,weatherlink.com 1.10,2013-07-31 21:30:00,
2013-07-31 14:43:00,72.0,60.0,29.93,NW,316,1.0,-999.0,65,-99.99,,,0.00,weatherlink.com 1.10,2013-07-31 21:43:00,
2013-07-31 14:59:00,71.1,59.0,29.93,WNW,284,0.0,-999.0,66,-99.99,,,0.00,weatherlink.com 1.10,2013-07-31 21:59:00,
2013-07-31 15:13:00,69.9,58.0,29.93,WNW,284,3.0,-999.0,67,-99.99,,,0.00,weatherlink.com 1.10,2013-07-31 22:13:00,
2013-07-31 15:29:00,70.8,58.0,29.93,North,351,1.0,-999.0,65,-99.99,,,0.00,weatherlink.com 1.10,2013-07-31 22:29:00,
2013-07-31 15:44:00,70.8,58.0,29.93,SSW,210,7.0,-999.0,65,-99.99,,,0.00,weatherlink.com 1.10,2013-07-31 22:44:00,
2013-07-31 15:59:00,70.8,58.0,29.92,WNW,289,1.0,-999.0,64,-99.99,,,0.00,weatherlink.com 1.10,2013-07-31 22:59:00,
2013-07-31 16:15:00,70.4,58.0,29.92,West,270,0.0,-999.0,65,-99.99,,,0.00,weatherlink.com 1.10,2013-07-31 23:15:00,
2013-07-31 16:29:00,71.5,58.0,29.92,West,262,3.0,-999.0,63,-99.99,,,0.00,weatherlink.com 1.10,2013-07-31 23:29:00,
2013-07-31 16:43:00,69.4,57.0,29.92,North,355,0.0,-999.0,66,-99.99,,,0.00,weatherlink.com 1.10,2013-07-31 23:43:00,
2013-07-31 16:59:00,69.1,57.0,29.93,SW,229,7.0,-999.0,66,-99.99,,,0.00,weatherlink.com 1.10,2013-07-31 23:59:00,
2013-07-31 17:14:00,69.6,58.0,29.93,West,269,0.0,-999.0,67,-99.99,,,0.00,weatherlink.com 1.10,2013-08-01 00:14:00,
2013-07-31 17:29:00,69.8,58.0,29.93,West,277,0.0,-999.0,66,-99.99,,,0.00,weatherlink.com 1.10,2013-08-01 00:29:00,
2013-07-31 17:44:00,69.6,58.0,29.93,SW,227,9.0,-999.0,66,-99.99,,,0.00,weatherlink.com 1.10,2013-08-01 00:44:00,
2013-07-31 17:59:00,68.3,57.0,29.93,NW,313,0.0,-999.0,68,-99.99,,,0.00,weatherlink.com 1.10,2013-08-01 00:59:00,
2013-07-31 18:14:00,67.6,57.0,29.92,West,263,2.0,-999.0,69,-99.99,,,0.00,weatherlink.com 1.10,2013-08-01 01:14:00,
2013-07-31 18:29:00,66.8,57.0,29.92,West,263,0.0,-999.0,70,-99.99,,,0.00,weatherlink.com 1.10,2013-08-01 01:29:00,
2013-07-31 18:44:00,65.6,56.0,29.92,NNW,338,0.0,-999.0,72,-99.99,,,0.00,weatherlink.com 1.10,2013-08-01 01:44:00,
2013-07-31 18:58:00,64.7,57.0,29.92,WSW,253,1.0,-999.0,75,-99.99,,,0.00,weatherlink.com 1.10,2013-08-01 01:58:00,
2013-07-31 19:13:00,64.5,56.0,29.92,WNW,292,2.0,-999.0,74,-99.99,,,0.00,weatherlink.com 1.10,2013-08-01 02:13:00,
2013-07-31 19:29:00,64.3,56.0,29.92,West,262,0.0,-999.0,75,-99.99,,,0.00,weatherlink.com 1.10,2013-08-01 02:29:00,
2013-07-31 19:44:00,63.1,55.0,29.92,West,265,0.0,-999.0,76,-99.99,,,0.00,weatherlink.com 1.10,2013-08-01 02:44:00,
2013-07-31 19:59:00,62.0,55.0,29.93,SW,234,0.0,-999.0,79,-99.99,,,0.00,weatherlink.com 1.10,2013-08-01 02:59:00,
2013-07-31 20:15:00,61.0,55.0,29.93,West,273,0.0,-999.0,80,-99.99,,,0.00,weatherlink.com 1.10,2013-08-01 03:15:00,
2013-07-31 20:29:00,60.1,55.0,29.93,WSW,257,0.0,-999.0,82,-99.99,,,0.00,weatherlink.com 1.10,2013-08-01 03:29:00,
2013-07-31 20:45:00,59.3,55.0,29.93,West,259,1.0,-999.0,84,-99.99,,,0.00,weatherlink.com 1.10,2013-08-01 03:45:00,
2013-07-31 20:59:00,58.7,54.0,29.93,SSW,200,0.0,-999.0,85,-99.99,,,0.00,weatherlink.com 1.10,2013-08-01 03:59:00,
2013-07-31 21:14:00,58.4,54.0,29.94,WSW,244,0.0,-999.0,85,-99.99,,,0.00,weatherlink.com 1.10,2013-08-01 04:14:00,
2013-07-31 21:29:00,58.1,54.0,29.94,WSW,244,0.0,-999.0,86,-99.99,,,0.00,weatherlink.com 1.10,2013-08-01 04:29:00,
2013-07-31 21:44:00,57.8,54.0,29.94,West,277,1.0,-999.0,86,-99.99,,,0.00,weatherlink.com 1.10,2013-08-01 04:44:00,
2013-07-31 21:58:00,57.6,54.0,29.94,WSW,239,0.0,-999.0,86,-99.99,,,0.00,weatherlink.com 1.10,2013-08-01 04:58:00,
2013-07-31 22:13:00,57.5,54.0,29.94,West,270,0.0,-999.0,87,-99.99,,,0.00,weatherlink.com 1.10,2013-08-01 05:13:00,
2013-07-31 22:28:00,57.3,54.0,29.94,WSW,250,0.0,-999.0,88,-99.99,,,0.00,weatherlink.com 1.10,2013-08-01 05:28:00,
2013-07-31 22:43:00,57.5,54.0,29.94,WSW,249,0.0,-999.0,87,-99.99,,,0.00,weatherlink.com 1.10,2013-08-01 05:43:00,
2013-07-31 22:58:00,57.5,54.0,29.94,West,263,1.0,-999.0,87,-99.99,,,0.00,weatherlink.com 1.10,2013-08-01 05:58:00,
2013-07-31 23:13:00,57.5,54.0,29.94,SW,225,0.0,-999.0,87,-99.99,,,0.00,weatherlink.com 1.10,2013-08-01 06:13:00,
2013-07-31 23:28:00,57.6,54.0,29.95,West,266,2.0,-999.0,86,-99.99,,,0.00,weatherlink.com 1.10,2013-08-01 06:28:00,
2013-07-31 23:43:00,57.6,54.0,29.95,WSW,246,1.0,-999.0,86,-99.99,,,0.00,weatherlink.com 1.10,2013-08-01 06:43:00,
2013-07-31 23:58:00,57.5,53.0,29.95,West,269,0.0,-999.0,86,-99.99,,,0.00,weatherlink.com 1.10,2013-08-01 06:58:00,